Time;durP1;ratioP1;P1;durP2;ratioP2;P2;SDS_P1;SDS_P2;PMS_P1;PMS_P2;Temp;Humidity;BMP_temperature;BMP_pressure;BME280_temperature;BME280_humidity;BME280_pressure;Samples;Min_cycle;Max_cycle;Signal;HPM_P1;HPM_P2
2023/09/11 00:00:15;;;;;;;11.48;9.27;;;;;;;;;;5061077;28;20505;-49
2023/09/11 00:02:41;;;;;;;10.85;9.68;;;;;;;;;;5047781;28;20055;-51
2023/09/11 00:05:06;;;;;;;10.93;9.73;;;;;;;;;;5066331;28;20096;-47
2023/09/11 00:07:31;;;;;;;10.05;8.95;;;;;;;;;;5066040;28;20024;-50
2023/09/11 00:09:57;;;;;;;9.63;8.05;;;;;;;;;;5066052;28;20016;-49
2023/09/11 00:12:22;;;;;;;11.38;9.95;;;;;;;;;;5060785;28;20389;-48
2023/09/11 00:14:47;;;;;;;10.55;8.68;;;;;;;;;;5045657;28;20016;-48
2023/09/11 00:17:12;;;;;;;12.88;9.48;;;;;;;;;;5046014;28;20025;-49
2023/09/11 00:19:38;;;;;;;12.70;10.30;;;;;;;;;;5046702;28;20021;-48
2023/09/11 00:22:03;;;;;;;12.82;10.43;;;;;;;;;;5065787;28;20477;-47
2023/09/11 00:24:28;;;;;;;10.70;9.55;;;;;;;;;;5065768;28;20062;-48
2023/09/11 00:26:55;;;;;;;12.27;10.50;;;;;;;;;;5065877;28;20128;-46
2023/09/11 00:29:20;;;;;;;10.80;9.35;;;;;;;;;;5065440;28;20036;-51
2023/09/11 00:31:46;;;;;;;12.43;10.05;;;;;;;;;;5065423;28;20039;-49
2023/09/11 00:34:11;;;;;;;13.02;10.70;;;;;;;;;;5065233;28;20040;-47
2023/09/11 00:36:37;;;;;;;13.13;10.32;;;;;;;;;;5065142;28;20501;-48
2023/09/11 00:39:02;;;;;;;12.80;10.55;;;;;;;;;;5065537;28;20095;-46
2023/09/11 00:41:27;;;;;;;11.38;9.88;;;;;;;;;;5055064;28;20563;-49
2023/09/11 00:43:53;;;;;;;13.90;10.88;;;;;;;;;;5045702;28;20044;-48
2023/09/11 00:46:18;;;;;;;11.48;10.23;;;;;;;;;;5062286;28;20043;-49
2023/09/11 00:48:43;;;;;;;12.57;10.10;;;;;;;;;;5065510;28;20419;-48
2023/09/11 00:51:09;;;;;;;10.95;9.73;;;;;;;;;;5060787;28;20462;-48
2023/09/11 00:53:34;;;;;;;12.55;10.60;;;;;;;;;;5056725;28;20086;-47
2023/09/11 00:55:59;;;;;;;10.40;8.70;;;;;;;;;;5065083;28;20028;-48
2023/09/11 00:58:25;;;;;;;12.02;10.35;;;;;;;;;;5065586;28;20081;-48
2023/09/11 01:00:51;;;;;;;12.30;10.40;;;;;;;;;;5065249;28;20047;-49
2023/09/11 01:03:16;;;;;;;11.13;9.43;;;;;;;;;;5065131;28;20159;-49
2023/09/11 01:05:42;;;;;;;10.93;9.50;;;;;;;;;;5065053;28;20115;-48
2023/09/11 01:08:08;;;;;;;12.77;10.55;;;;;;;;;;5065194;28;20112;-48
2023/09/11 01:10:34;;;;;;;11.98;10.50;;;;;;;;;;5047499;28;20021;-49
2023/09/11 01:12:59;;;;;;;14.63;8.88;;;;;;;;;;5064995;28;20671;-47
2023/09/11 01:15:25;;;;;;;10.00;9.00;;;;;;;;;;5065096;28;20536;-49
2023/09/11 01:17:57;;;;;;;10.52;9.38;;;;;;;;;;5065286;28;20182;-47
2023/09/11 01:20:23;;;;;;;10.55;9.32;;;;;;;;;;5065332;28;20036;-47
2023/09/11 01:22:54;;;;;;;11.93;10.70;;;;;;;;;;5065266;28;20061;-47
2023/09/11 01:25:19;;;;;;;10.10;9.00;;;;;;;;;;5069064;28;20029;-49
2023/09/11 01:28:08;;;;;;;10.98;9.70;;;;;;;;;;5068723;28;20024;-47
2023/09/11 01:30:33;;;;;;;10.48;9.35;;;;;;;;;;5069043;28;20020;-48
2023/09/11 01:32:59;;;;;;;10.13;8.80;;;;;;;;;;5069030;28;20373;-48
2023/09/11 01:35:24;;;;;;;10.90;9.77;;;;;;;;;;5048189;28;20048;-46
2023/09/11 01:37:49;;;;;;;11.13;9.60;;;;;;;;;;5048647;28;20025;-47
2023/09/11 01:40:15;;;;;;;12.30;10.20;;;;;;;;;;5048959;28;20518;-50
2023/09/11 01:42:44;;;;;;;11.75;10.15;;;;;;;;;;5056274;28;20032;-48
2023/09/11 01:45:13;;;;;;;9.90;8.48;;;;;;;;;;5068209;28;20052;-47
2023/09/11 01:47:38;;;;;;;11.45;9.68;;;;;;;;;;5068404;28;20085;-49
2023/09/11 01:50:04;;;;;;;11.43;9.85;;;;;;;;;;5068750;28;20032;-48
2023/09/11 01:52:31;;;;;;;11.80;10.38;;;;;;;;;;5068507;28;20017;-46
2023/09/11 01:54:57;;;;;;;10.75;9.18;;;;;;;;;;5068484;28;20669;-47
2023/09/11 01:57:25;;;;;;;12.07;10.40;;;;;;;;;;5068408;28;20032;-49
2023/09/11 01:59:50;;;;;;;11.50;8.95;;;;;;;;;;5056652;28;20159;-47
2023/09/11 02:02:15;;;;;;;10.85;8.90;;;;;;;;;;5054715;28;20115;-49
2023/09/11 02:04:40;;;;;;;10.02;8.68;;;;;;;;;;5068222;28;20035;-47
2023/09/11 02:07:06;;;;;;;10.57;9.00;;;;;;;;;;5068401;28;20659;-49
2023/09/11 02:09:31;;;;;;;11.70;10.23;;;;;;;;;;5068397;28;20021;-48
2023/09/11 02:11:56;;;;;;;10.13;8.48;;;;;;;;;;5068209;28;20741;-48
2023/09/11 02:14:21;;;;;;;11.02;9.77;;;;;;;;;;5068015;28;20086;-47
2023/09/11 02:16:47;;;;;;;13.70;10.88;;;;;;;;;;5068341;28;20104;-46
2023/09/11 02:19:12;;;;;;;11.52;9.73;;;;;;;;;;5067768;28;20021;-48
2023/09/11 02:21:37;;;;;;;13.50;10.68;;;;;;;;;;5068133;28;20028;-46
2023/09/11 02:24:03;;;;;;;10.48;9.18;;;;;;;;;;5068033;28;20035;-49
2023/09/11 02:26:28;;;;;;;10.98;9.75;;;;;;;;;;5068098;28;20089;-48
2023/09/11 02:28:54;;;;;;;12.88;11.50;;;;;;;;;;5053268;28;20108;-50
2023/09/11 02:31:20;;;;;;;12.40;11.10;;;;;;;;;;5056372;28;20388;-49
2023/09/11 02:33:45;;;;;;;13.38;11.85;;;;;;;;;;5067558;28;20020;-51
2023/09/11 02:36:10;;;;;;;12.13;10.82;;;;;;;;;;5064969;28;20024;-50
2023/09/11 02:38:36;;;;;;;12.63;11.23;;;;;;;;;;5067631;28;20043;-48
2023/09/11 02:41:01;;;;;;;12.27;10.95;;;;;;;;;;5066606;28;20381;-49
2023/09/11 02:43:26;;;;;;;11.02;9.70;;;;;;;;;;5038652;28;20038;-49
2023/09/11 02:45:51;;;;;;;10.65;9.50;;;;;;;;;;5021485;28;20065;-46
2023/09/11 02:48:17;;;;;;;10.93;9.73;;;;;;;;;;5007996;28;20186;-50
2023/09/11 02:50:42;;;;;;;12.10;10.63;;;;;;;;;;5008974;28;20110;-49
2023/09/11 02:53:08;;;;;;;12.50;11.05;;;;;;;;;;5007979;28;20483;-46
2023/09/11 02:55:37;;;;;;;12.20;10.40;;;;;;;;;;5009492;28;20037;-50
2023/09/11 02:58:03;;;;;;;11.20;9.77;;;;;;;;;;5024404;28;20025;-46
2023/09/11 03:00:29;;;;;;;12.45;8.90;;;;;;;;;;5025875;28;20033;-48
2023/09/11 03:02:56;;;;;;;11.10;9.63;;;;;;;;;;5027077;28;20112;-49
2023/09/11 03:05:21;;;;;;;13.88;12.05;;;;;;;;;;5012646;28;20475;-48
2023/09/11 03:07:46;;;;;;;13.43;11.85;;;;;;;;;;5007256;28;20030;-49
2023/09/11 03:10:12;;;;;;;12.50;10.98;;;;;;;;;;5007355;28;20550;-47
2023/09/11 03:12:37;;;;;;;13.38;11.73;;;;;;;;;;5026869;28;20041;-49
2023/09/11 03:15:03;;;;;;;10.77;9.55;;;;;;;;;;5004981;28;20049;-51
2023/09/11 03:17:31;;;;;;;12.90;10.95;;;;;;;;;;5025044;28;20121;-47
2023/09/11 03:19:57;;;;;;;9.70;8.35;;;;;;;;;;5027013;28;20030;-47
2023/09/11 03:22:22;;;;;;;10.63;9.27;;;;;;;;;;5040167;28;20025;-48
2023/09/11 03:24:48;;;;;;;12.00;10.60;;;;;;;;;;5018282;28;20030;-47
2023/09/11 03:27:13;;;;;;;12.27;9.70;;;;;;;;;;5020563;28;20036;-48
2023/09/11 03:29:38;;;;;;;12.48;11.13;;;;;;;;;;5020783;28;20018;-47
2023/09/11 03:32:03;;;;;;;11.82;10.57;;;;;;;;;;5021410;28;20446;-50
2023/09/11 03:34:29;;;;;;;12.68;10.98;;;;;;;;;;5026343;28;20109;-49
2023/09/11 03:36:54;;;;;;;13.45;12.07;;;;;;;;;;5012124;28;20125;-52
2023/09/11 03:39:19;;;;;;;19.05;12.95;;;;;;;;;;5020417;28;20026;-48
2023/09/11 03:41:45;;;;;;;17.33;13.05;;;;;;;;;;5007739;28;20025;-48
2023/09/11 03:44:10;;;;;;;13.60;11.77;;;;;;;;;;5030639;28;20481;-49
2023/09/11 03:46:35;;;;;;;12.38;10.60;;;;;;;;;;5047951;28;20040;-51
2023/09/11 03:49:00;;;;;;;14.02;12.60;;;;;;;;;;5046753;28;20029;-51
2023/09/11 03:51:26;;;;;;;13.35;11.98;;;;;;;;;;5055699;28;20021;-50
2023/09/11 03:53:51;;;;;;;12.82;11.27;;;;;;;;;;5066036;28;20040;-49
2023/09/11 03:56:16;;;;;;;13.13;11.77;;;;;;;;;;5060864;28;20029;-48
2023/09/11 03:58:42;;;;;;;15.27;11.40;;;;;;;;;;5065274;28;20033;-47
2023/09/11 04:01:08;;;;;;;12.80;11.55;;;;;;;;;;5064976;28;20069;-48
2023/09/11 04:03:33;;;;;;;13.70;12.18;;;;;;;;;;5045410;28;20032;-45
2023/09/11 04:05:58;;;;;;;15.73;12.98;;;;;;;;;;5059104;28;20422;-50
2023/09/11 04:08:24;;;;;;;12.95;11.25;;;;;;;;;;5065946;28;20574;-48
2023/09/11 04:10:49;;;;;;;12.63;10.57;;;;;;;;;;5064643;28;20027;-48
2023/09/11 04:13:14;;;;;;;14.73;11.70;;;;;;;;;;5065685;28;20017;-48
2023/09/11 04:15:40;;;;;;;12.77;11.15;;;;;;;;;;5063783;28;20484;-48
2023/09/11 04:18:06;;;;;;;12.20;10.70;;;;;;;;;;5065667;28;20122;-48
2023/09/11 04:20:33;;;;;;;15.20;12.18;;;;;;;;;;5062815;28;20078;-46
2023/09/11 04:23:02;;;;;;;10.18;9.18;;;;;;;;;;5064768;28;20132;-50
2023/09/11 04:25:27;;;;;;;17.40;11.50;;;;;;;;;;5063242;28;20025;-50
2023/09/11 04:27:52;;;;;;;14.30;11.52;;;;;;;;;;5046316;28;20032;-48
2023/09/11 04:30:18;;;;;;;14.35;12.65;;;;;;;;;;5058975;28;20035;-53
2023/09/11 04:32:44;;;;;;;13.23;11.65;;;;;;;;;;5045755;28;20017;-49
2023/09/11 04:35:09;;;;;;;15.48;12.52;;;;;;;;;;5044954;28;20033;-50
2023/09/11 04:37:35;;;;;;;15.85;11.45;;;;;;;;;;5064300;28;20466;-50
2023/09/11 04:40:00;;;;;;;13.00;11.32;;;;;;;;;;5066068;28;20059;-50
2023/09/11 04:42:26;;;;;;;16.40;11.85;;;;;;;;;;5064839;28;20059;-50
2023/09/11 04:44:51;;;;;;;14.80;12.95;;;;;;;;;;5062060;28;20418;-51
2023/09/11 04:47:17;;;;;;;16.77;13.57;;;;;;;;;;5061820;28;20024;-49
2023/09/11 04:49:42;;;;;;;13.93;12.50;;;;;;;;;;5065299;28;20475;-50
2023/09/11 04:52:07;;;;;;;14.77;12.60;;;;;;;;;;5063114;28;20039;-51
2023/09/11 04:54:33;;;;;;;14.05;12.02;;;;;;;;;;5065142;28;20513;-49
2023/09/11 04:56:58;;;;;;;13.68;12.05;;;;;;;;;;5050983;28;20130;-49
2023/09/11 04:59:23;;;;;;;16.67;13.48;;;;;;;;;;5041958;28;20036;-51
2023/09/11 05:01:49;;;;;;;16.52;12.88;;;;;;;;;;5056958;28;20016;-53
2023/09/11 05:04:14;;;;;;;14.13;9.95;;;;;;;;;;5065165;28;20166;-52
2023/09/11 05:06:39;;;;;;;15.90;11.60;;;;;;;;;;5063256;28;20501;-51
2023/09/11 05:09:05;;;;;;;13.27;9.73;;;;;;;;;;5064764;28;20044;-51
2023/09/11 05:11:30;;;;;;;11.18;9.98;;;;;;;;;;5053119;28;20478;-49
2023/09/11 05:13:55;;;;;;;12.65;11.43;;;;;;;;;;5045181;28;20044;-50
2023/09/11 05:16:20;;;;;;;12.30;11.10;;;;;;;;;;5052494;28;20586;-51
2023/09/11 05:18:46;;;;;;;14.48;11.32;;;;;;;;;;5063808;28;20024;-52
2023/09/11 05:21:11;;;;;;;13.20;11.00;;;;;;;;;;5056752;28;20024;-51
2023/09/11 05:23:36;;;;;;;13.80;11.00;;;;;;;;;;5061594;28;20440;-52
2023/09/11 05:26:03;;;;;;;12.48;11.27;;;;;;;;;;5063444;28;20028;-52
2023/09/11 05:28:29;;;;;;;12.25;10.77;;;;;;;;;;5064398;28;20023;-49
2023/09/11 05:30:54;;;;;;;11.23;9.98;;;;;;;;;;5044713;28;20067;-48
2023/09/11 05:33:19;;;;;;;13.75;10.55;;;;;;;;;;5043314;28;20144;-51
2023/09/11 05:35:45;;;;;;;11.75;10.55;;;;;;;;;;5045295;28;20068;-52
2023/09/11 05:38:10;;;;;;;11.43;10.27;;;;;;;;;;5051705;28;20016;-50
2023/09/11 05:40:36;;;;;;;13.55;11.85;;;;;;;;;;5062800;28;20028;-48
2023/09/11 05:43:01;;;;;;;15.85;14.10;;;;;;;;;;5063560;28;20435;-53
2023/09/11 05:45:26;;;;;;;14.13;12.00;;;;;;;;;;5057242;28;20029;-53
2023/09/11 05:47:52;;;;;;;19.13;17.40;;;;;;;;;;5063933;28;20024;-51
2023/09/11 05:50:17;;;;;;;15.13;13.63;;;;;;;;;;5050978;28;20074;-51
2023/09/11 05:52:42;;;;;;;13.27;11.98;;;;;;;;;;5064457;28;20028;-54
2023/09/11 05:55:08;;;;;;;13.43;12.15;;;;;;;;;;5063052;28;20042;-51
2023/09/11 05:57:33;;;;;;;15.57;13.55;;;;;;;;;;5048721;28;20040;-50
2023/09/11 05:59:58;;;;;;;13.23;10.77;;;;;;;;;;5061047;28;20032;-49
2023/09/11 06:02:24;;;;;;;18.27;15.35;;;;;;;;;;5051232;28;20033;-49
2023/09/11 06:04:49;;;;;;;17.17;15.15;;;;;;;;;;5053410;28;20480;-47
2023/09/11 06:07:16;;;;;;;18.45;15.35;;;;;;;;;;5064392;28;20040;-49
2023/09/11 06:09:41;;;;;;;746.17;330.85;;;;;;;;;;5062604;28;20040;-50
2023/09/11 06:12:07;;;;;;;802.28;512.58;;;;;;;;;;5055463;28;20445;-52
2023/09/11 06:14:32;;;;;;;817.47;535.63;;;;;;;;;;5063703;28;20027;-51
2023/09/11 06:16:58;;;;;;;810.95;552.22;;;;;;;;;;5054645;28;20029;-49
2023/09/11 06:19:23;;;;;;;812.42;534.63;;;;;;;;;;5047665;28;20017;-52
2023/09/11 06:21:48;;;;;;;815.60;569.88;;;;;;;;;;5060450;28;20031;-48
2023/09/11 06:24:14;;;;;;;831.38;582.97;;;;;;;;;;5059509;28;20454;-52
2023/09/11 06:26:41;;;;;;;831.83;602.88;;;;;;;;;;5056525;28;22118;-52
2023/09/11 06:29:06;;;;;;;830.63;602.30;;;;;;;;;;5062512;28;20032;-52
2023/09/11 06:31:32;;;;;;;842.90;624.80;;;;;;;;;;5059788;28;20693;-48
2023/09/11 06:33:57;;;;;;;841.35;619.47;;;;;;;;;;5061738;28;20077;-52
2023/09/11 06:36:22;;;;;;;848.05;631.67;;;;;;;;;;5063152;28;20051;-51
2023/09/11 06:38:47;;;;;;;833.47;631.97;;;;;;;;;;5060820;28;20024;-51
2023/09/11 06:41:13;;;;;;;830.97;617.72;;;;;;;;;;5061360;28;20094;-51
2023/09/11 06:43:38;;;;;;;839.08;640.42;;;;;;;;;;5062388;28;20457;-50
2023/09/11 06:46:03;;;;;;;843.47;643.95;;;;;;;;;;5058725;28;20040;-48
2023/09/11 06:48:28;;;;;;;834.83;651.17;;;;;;;;;;5062241;28;20645;-53
2023/09/11 06:50:54;;;;;;;847.65;653.47;;;;;;;;;;5062093;28;20084;-49
2023/09/11 06:53:19;;;;;;;835.63;653.80;;;;;;;;;;5065123;28;20807;-52
2023/09/11 06:55:44;;;;;;;848.53;677.80;;;;;;;;;;5058698;28;20033;-50
2023/09/11 06:58:10;;;;;;;855.75;695.95;;;;;;;;;;5058548;28;20696;-47
2023/09/11 07:00:36;;;;;;;871.83;715.03;;;;;;;;;;5060181;28;20020;-51
2023/09/11 07:03:01;;;;;;;869.47;725.50;;;;;;;;;;5059275;28;20080;-48
2023/09/11 07:05:27;;;;;;;806.20;588.17;;;;;;;;;;5057323;28;20033;-50
2023/09/11 07:07:53;;;;;;;863.88;729.10;;;;;;;;;;5061592;28;20058;-53
2023/09/11 07:10:18;;;;;;;869.95;737.15;;;;;;;;;;5061520;28;20048;-54
2023/09/11 07:12:44;;;;;;;869.53;732.75;;;;;;;;;;5062236;28;20440;-51
2023/09/11 07:15:09;;;;;;;870.55;729.10;;;;;;;;;;5056232;28;20059;-53
2023/09/11 07:17:35;;;;;;;873.53;735.10;;;;;;;;;;5064165;28;20502;-51
2023/09/11 07:20:01;;;;;;;880.42;746.88;;;;;;;;;;5060566;28;20020;-50
2023/09/11 07:22:26;;;;;;;882.63;746.65;;;;;;;;;;5058967;28;20035;-51
2023/09/11 07:24:51;;;;;;;877.25;741.67;;;;;;;;;;5060115;28;20039;-50
2023/09/11 07:27:17;;;;;;;877.97;754.95;;;;;;;;;;5059937;28;20032;-52
2023/09/11 07:29:42;;;;;;;888.45;758.75;;;;;;;;;;5056394;28;20020;-51
2023/09/11 07:32:08;;;;;;;883.87;761.67;;;;;;;;;;5058175;28;20070;-50
2023/09/11 07:34:34;;;;;;;884.90;771.10;;;;;;;;;;5045498;28;20269;-55
2023/09/11 07:36:59;;;;;;;899.28;780.90;;;;;;;;;;5056192;28;20037;-52
2023/09/11 07:39:24;;;;;;;892.25;772.67;;;;;;;;;;5052654;28;20025;-50
2023/09/11 07:41:49;;;;;;;906.40;781.97;;;;;;;;;;5054758;28;20703;-52
2023/09/11 07:44:15;;;;;;;893.90;782.03;;;;;;;;;;5054756;28;20094;-53
2023/09/11 07:46:40;;;;;;;903.70;783.78;;;;;;;;;;5061955;28;20269;-53
2023/09/11 07:49:05;;;;;;;893.03;770.90;;;;;;;;;;5053370;28;20091;-54
2023/09/11 07:51:31;;;;;;;884.65;767.20;;;;;;;;;;5057004;28;20273;-51
2023/09/11 07:53:56;;;;;;;890.95;765.17;;;;;;;;;;5062520;28;20082;-54
2023/09/11 07:56:22;;;;;;;902.17;776.40;;;;;;;;;;5063904;28;20040;-52
2023/09/11 07:58:50;;;;;;;893.17;773.97;;;;;;;;;;5064855;28;20528;-51
2023/09/11 08:01:15;;;;;;;910.72;778.63;;;;;;;;;;5062678;28;20130;-51
2023/09/11 08:03:41;;;;;;;901.35;768.78;;;;;;;;;;5065254;28;20032;-51
2023/09/11 08:06:06;;;;;;;888.37;758.73;;;;;;;;;;5056635;28;20742;-50
2023/09/11 08:08:31;;;;;;;897.55;771.67;;;;;;;;;;5045509;28;20254;-53
2023/09/11 08:10:57;;;;;;;893.08;776.70;;;;;;;;;;5051665;28;20025;-50
2023/09/11 08:13:22;;;;;;;896.47;775.30;;;;;;;;;;5064380;28;20056;-53
2023/09/11 08:15:47;;;;;;;905.10;780.97;;;;;;;;;;5063007;28;20024;-53
2023/09/11 08:18:12;;;;;;;908.40;779.92;;;;;;;;;;5064711;28;20791;-52
2023/09/11 08:20:40;;;;;;;905.50;788.90;;;;;;;;;;5063518;28;20085;-52
2023/09/11 08:23:06;;;;;;;905.00;783.42;;;;;;;;;;5064439;28;20265;-51
2023/09/11 08:25:31;;;;;;;913.97;797.28;;;;;;;;;;5061058;28;20025;-54
2023/09/11 08:27:56;;;;;;;921.38;796.40;;;;;;;;;;5054789;28;20023;-50
2023/09/11 08:30:21;;;;;;;910.63;803.43;;;;;;;;;;5063553;28;20039;-53
2023/09/11 08:32:47;;;;;;;912.35;801.38;;;;;;;;;;5069068;28;20273;-51
2023/09/11 08:35:12;;;;;;;913.50;797.75;;;;;;;;;;5054914;28;20021;-53
2023/09/11 08:37:37;;;;;;;913.33;802.10;;;;;;;;;;5052113;28;20025;-54
2023/09/11 08:40:03;;;;;;;920.90;797.17;;;;;;;;;;5051814;28;20036;-55
2023/09/11 08:42:28;;;;;;;919.47;807.58;;;;;;;;;;5059014;28;20081;-52
2023/09/11 08:44:54;;;;;;;917.87;808.03;;;;;;;;;;5058129;28;20053;-53
2023/09/11 08:47:26;;;;;;;911.97;802.95;;;;;;;;;;5050772;28;20348;-54
2023/09/11 08:49:54;;;;;;;916.75;810.83;;;;;;;;;;5049452;28;20051;-55
2023/09/11 08:52:19;;;;;;;916.97;804.65;;;;;;;;;;5057057;28;20029;-54
2023/09/11 08:54:48;;;;;;;915.95;810.53;;;;;;;;;;5059576;28;20036;-53
2023/09/11 08:57:15;;;;;;;926.60;823.53;;;;;;;;;;5048743;28;20087;-55
2023/09/11 08:59:42;;;;;;;922.70;817.35;;;;;;;;;;5055983;28;20091;-55
2023/09/11 09:02:07;;;;;;;914.03;808.00;;;;;;;;;;5059066;28;20058;-53
2023/09/11 09:04:34;;;;;;;922.13;815.95;;;;;;;;;;5054300;28;20029;-55
2023/09/11 09:07:00;;;;;;;924.58;822.78;;;;;;;;;;5057704;28;20724;-53
2023/09/11 09:09:26;;;;;;;948.90;845.30;;;;;;;;;;5061608;28;20082;-52
2023/09/11 09:11:52;;;;;;;950.22;846.78;;;;;;;;;;5052713;28;20029;-53
2023/09/11 09:14:21;;;;;;;953.95;849.97;;;;;;;;;;5036772;28;20616;-52
2023/09/11 09:16:47;;;;;;;954.50;850.67;;;;;;;;;;5048089;28;20116;-54
2023/09/11 09:19:12;;;;;;;954.22;850.90;;;;;;;;;;5054567;28;20101;-49
2023/09/11 09:21:57;;;;;;;953.23;848.83;;;;;;;;;;5053260;28;20019;-51
2023/09/11 09:24:23;;;;;;;949.30;845.40;;;;;;;;;;5053621;28;20016;-52
2023/09/11 09:26:56;;;;;;;957.53;853.83;;;;;;;;;;5037894;28;20045;-53
2023/09/11 09:29:21;;;;;;;958.50;855.20;;;;;;;;;;5060613;28;20032;-55
2023/09/11 09:31:47;;;;;;;957.77;854.17;;;;;;;;;;5057739;28;20077;-50
2023/09/11 09:34:13;;;;;;;952.95;849.72;;;;;;;;;;5054631;28;20021;-55
2023/09/11 09:36:48;;;;;;;947.13;844.00;;;;;;;;;;5047314;28;20128;-51
2023/09/11 09:39:13;;;;;;;942.85;839.72;;;;;;;;;;5059957;28;20025;-50
2023/09/11 09:41:39;;;;;;;946.83;843.53;;;;;;;;;;5063291;28;20461;-53
2023/09/11 09:44:04;;;;;;;940.38;837.78;;;;;;;;;;5053513;28;20041;-48
2023/09/11 09:46:29;;;;;;;941.30;838.95;;;;;;;;;;5056763;28;20041;-52
2023/09/11 09:48:55;;;;;;;922.23;819.33;;;;;;;;;;5059699;28;20024;-51
2023/09/11 09:51:21;;;;;;;922.83;818.63;;;;;;;;;;5067359;28;20328;-50
2023/09/11 09:53:46;;;;;;;922.17;819.90;;;;;;;;;;5068221;28;20409;-50
2023/09/11 09:56:12;;;;;;;921.33;818.15;;;;;;;;;;5066551;28;20061;-52
2023/09/11 09:58:39;;;;;;;920.75;818.58;;;;;;;;;;5056828;28;20383;-51
2023/09/11 10:01:06;;;;;;;917.22;811.17;;;;;;;;;;5063303;28;20035;-49
2023/09/11 10:03:45;;;;;;;915.95;812.47;;;;;;;;;;5068188;28;20016;-54
2023/09/11 10:06:30;;;;;;;918.72;815.72;;;;;;;;;;5076340;28;20037;-53
2023/09/11 10:09:07;;;;;;;920.88;806.70;;;;;;;;;;5056994;28;20048;-52
2023/09/11 10:11:33;;;;;;;926.05;824.88;;;;;;;;;;5051184;28;20386;-51
2023/09/11 10:13:59;;;;;;;914.42;812.60;;;;;;;;;;5064907;28;20390;-50
2023/09/11 10:16:25;;;;;;;923.03;818.90;;;;;;;;;;5065853;28;20714;-50
2023/09/11 10:18:52;;;;;;;927.78;825.80;;;;;;;;;;5052400;28;20028;-50
2023/09/11 10:21:18;;;;;;;918.10;816.20;;;;;;;;;;5065409;28;20031;-52
2023/09/11 10:23:44;;;;;;;910.00;810.00;;;;;;;;;;5063164;28;20108;-48
2023/09/11 10:26:13;;;;;;;938.22;836.55;;;;;;;;;;5065911;28;20062;-49
2023/09/11 10:28:40;;;;;;;946.17;844.30;;;;;;;;;;5078558;28;20074;-49
2023/09/11 10:31:11;;;;;;;943.63;842.17;;;;;;;;;;5064803;28;20090;-52
2023/09/11 10:33:38;;;;;;;938.75;837.25;;;;;;;;;;5067023;28;20375;-50
2023/09/11 10:36:13;;;;;;;933.60;832.38;;;;;;;;;;5066395;28;20027;-50
2023/09/11 10:38:40;;;;;;;933.88;832.78;;;;;;;;;;5067299;28;20021;-54
2023/09/11 10:41:08;;;;;;;924.42;823.80;;;;;;;;;;5065372;28;20021;-51
2023/09/11 10:43:33;;;;;;;937.03;835.35;;;;;;;;;;5066300;28;20064;-50
2023/09/11 10:46:21;;;;;;;942.45;840.85;;;;;;;;;;5065616;28;20033;-50
2023/09/11 10:48:47;;;;;;;940.15;838.05;;;;;;;;;;5066219;28;20115;-49
2023/09/11 10:51:13;;;;;;;941.13;839.03;;;;;;;;;;5066607;28;20542;-51
2023/09/11 10:53:38;;;;;;;935.28;832.35;;;;;;;;;;5066416;28;20016;-48
2023/09/11 10:56:04;;;;;;;941.05;840.35;;;;;;;;;;5065891;28;20035;-50
2023/09/11 10:58:29;;;;;;;930.33;829.45;;;;;;;;;;5066744;28;20040;-48
2023/09/11 11:00:56;;;;;;;933.40;831.72;;;;;;;;;;5066556;28;20028;-51
2023/09/11 11:03:24;;;;;;;931.90;830.17;;;;;;;;;;5064857;28;20492;-51
2023/09/11 11:05:51;;;;;;;942.63;840.55;;;;;;;;;;5068600;28;20020;-48
2023/09/11 11:08:16;;;;;;;953.10;850.13;;;;;;;;;;5063826;28;20562;-52
2023/09/11 11:10:45;;;;;;;953.20;850.35;;;;;;;;;;5056746;28;20108;-49
2023/09/11 11:13:11;;;;;;;954.53;850.97;;;;;;;;;;5065234;28;20039;-51
2023/09/11 11:15:36;;;;;;;956.22;853.42;;;;;;;;;;5095182;28;20033;-49
2023/09/11 11:18:09;;;;;;;950.25;847.40;;;;;;;;;;5054708;28;20053;-52
2023/09/11 11:20:35;;;;;;;936.30;833.58;;;;;;;;;;5053986;28;20031;-49
2023/09/11 11:23:10;;;;;;;930.63;828.80;;;;;;;;;;5056204;28;20028;-50
2023/09/11 11:25:36;;;;;;;931.67;829.95;;;;;;;;;;5055285;28;20028;-48
2023/09/11 11:28:06;;;;;;;930.70;828.17;;;;;;;;;;5060915;28;20107;-49
2023/09/11 11:30:33;;;;;;;935.15;832.55;;;;;;;;;;5055272;28;20040;-48
2023/09/11 11:32:58;;;;;;;924.40;822.63;;;;;;;;;;5058947;28;20611;-52
2023/09/11 11:35:24;;;;;;;919.77;818.27;;;;;;;;;;5057259;28;20069;-47
2023/09/11 11:37:52;;;;;;;913.60;811.22;;;;;;;;;;5053430;28;20253;-52
2023/09/11 11:40:17;;;;;;;;;;;;;;;;;;5062393;28;20033;-49
2023/09/11 11:42:44;;;;;;;905.90;792.45;;;;;;;;;;5054254;28;19908;-48
2023/09/11 11:45:10;;;;;;;912.70;805.25;;;;;;;;;;5058643;28;20053;-50
2023/09/11 11:47:36;;;;;;;907.00;802.47;;;;;;;;;;5060915;28;20162;-49
2023/09/11 11:50:11;;;;;;;906.53;798.10;;;;;;;;;;5053656;28;20025;-57
2023/09/11 11:52:36;;;;;;;898.28;792.42;;;;;;;;;;5057488;28;20028;-53
2023/09/11 11:55:02;;;;;;;899.33;793.10;;;;;;;;;;5058727;28;20065;-52
2023/09/11 11:57:28;;;;;;;906.15;796.45;;;;;;;;;;5059363;28;20327;-50
2023/09/11 11:59:54;;;;;;;904.53;795.38;;;;;;;;;;5055236;28;20021;-50
2023/09/11 12:02:20;;;;;;;908.10;796.28;;;;;;;;;;5055673;28;20022;-52
2023/09/11 12:04:45;;;;;;;902.30;788.90;;;;;;;;;;5053035;28;20124;-51
2023/09/11 12:07:11;;;;;;;901.50;794.60;;;;;;;;;;5048494;28;20782;-52
2023/09/11 12:09:38;;;;;;;905.78;792.13;;;;;;;;;;5064983;28;20542;-48
2023/09/11 12:12:05;;;;;;;897.70;783.13;;;;;;;;;;5058903;28;20428;-52
2023/09/11 12:14:30;;;;;;;905.65;782.80;;;;;;;;;;5059660;28;20036;-52
2023/09/11 12:16:55;;;;;;;894.35;780.80;;;;;;;;;;5052932;28;20500;-52
2023/09/11 12:19:23;;;;;;;906.72;786.92;;;;;;;;;;5058961;28;20036;-52
2023/09/11 12:21:48;;;;;;;897.15;775.33;;;;;;;;;;5063509;28;20668;-51
2023/09/11 12:24:13;;;;;;;895.08;779.55;;;;;;;;;;5036990;28;20090;-51
2023/09/11 12:26:39;;;;;;;899.67;778.88;;;;;;;;;;5058129;28;20067;-55
2023/09/11 12:29:04;;;;;;;895.53;784.92;;;;;;;;;;5056829;28;20019;-55
2023/09/11 12:31:30;;;;;;;899.83;787.20;;;;;;;;;;5052904;28;20477;-53
2023/09/11 12:33:58;;;;;;;892.20;774.92;;;;;;;;;;5051510;28;20024;-50
2023/09/11 12:36:23;;;;;;;893.65;787.63;;;;;;;;;;5062667;28;20128;-51
2023/09/11 12:38:49;;;;;;;896.80;777.30;;;;;;;;;;5057681;28;20135;-49
2023/09/11 12:41:15;;;;;;;894.60;775.63;;;;;;;;;;5054203;28;20025;-50
2023/09/11 12:43:40;;;;;;;896.95;777.60;;;;;;;;;;5070561;28;20151;-49
2023/09/11 12:46:05;;;;;;;893.50;777.50;;;;;;;;;;5052742;28;20036;-49
2023/09/11 12:48:32;;;;;;;894.60;774.08;;;;;;;;;;5061842;28;20045;-49
2023/09/11 12:50:57;;;;;;;892.95;781.53;;;;;;;;;;5061065;28;20382;-49
2023/09/11 12:53:22;;;;;;;891.45;773.35;;;;;;;;;;5051495;28;20402;-48
2023/09/11 12:55:51;;;;;;;905.42;784.80;;;;;;;;;;5050366;28;20033;-52
2023/09/11 12:58:17;;;;;;;893.88;784.72;;;;;;;;;;5056778;28;20111;-51
2023/09/11 13:00:46;;;;;;;902.13;786.13;;;;;;;;;;5049497;28;20028;-48
2023/09/11 13:03:11;;;;;;;902.50;793.60;;;;;;;;;;5059164;28;20056;-50
2023/09/11 13:05:37;;;;;;;898.42;790.35;;;;;;;;;;5038628;28;20205;-52
2023/09/11 13:08:02;;;;;;;900.95;785.45;;;;;;;;;;5057372;28;20021;-48
2023/09/11 13:10:28;;;;;;;896.60;778.47;;;;;;;;;;5052140;28;20071;-48
2023/09/11 13:12:53;;;;;;;897.38;784.35;;;;;;;;;;5057834;28;20024;-53
2023/09/11 13:15:18;;;;;;;896.20;796.33;;;;;;;;;;5056294;28;20741;-51
2023/09/11 13:17:44;;;;;;;901.42;800.70;;;;;;;;;;5057697;28;20499;-49
2023/09/11 13:20:10;;;;;;;895.17;783.60;;;;;;;;;;5059254;28;20023;-49
2023/09/11 13:22:35;;;;;;;896.53;787.72;;;;;;;;;;5065025;28;20046;-54
2023/09/11 13:25:00;;;;;;;893.08;792.65;;;;;;;;;;5062571;28;20029;-51
2023/09/11 13:27:26;;;;;;;894.33;783.58;;;;;;;;;;5056020;28;20218;-50
2023/09/11 13:29:51;;;;;;;897.92;797.67;;;;;;;;;;5058699;28;20029;-49
2023/09/11 13:32:16;;;;;;;894.83;792.92;;;;;;;;;;5066500;28;20021;-52
2023/09/11 13:34:44;;;;;;;894.85;789.63;;;;;;;;;;5067408;28;20028;-55
2023/09/11 13:37:09;;;;;;;893.30;780.88;;;;;;;;;;5054288;28;20083;-54
2023/09/11 13:39:34;;;;;;;900.10;789.42;;;;;;;;;;5066117;28;20505;-50
2023/09/11 13:42:00;;;;;;;889.20;770.37;;;;;;;;;;5066921;28;20515;-53
2023/09/11 13:44:25;;;;;;;893.28;784.58;;;;;;;;;;5055828;28;20304;-51
2023/09/11 13:46:50;;;;;;;887.90;777.42;;;;;;;;;;5054661;28;20692;-52
2023/09/11 13:49:18;;;;;;;904.83;793.40;;;;;;;;;;5054581;28;20030;-51
2023/09/11 13:51:43;;;;;;;900.60;781.03;;;;;;;;;;5060226;28;20119;-53
2023/09/11 13:54:08;;;;;;;904.20;804.42;;;;;;;;;;5060911;28;20111;-53
2023/09/11 13:56:34;;;;;;;895.15;785.88;;;;;;;;;;5059265;28;20123;-51
2023/09/11 13:58:59;;;;;;;894.17;774.05;;;;;;;;;;5056172;28;20047;-53